sensor_id;sensor_type;location;lat;lon;timestamp;P1;durP1;ratioP1;P2;durP2;ratioP2
28304;SDS011;15569;42.652;23.040;2022-11-13T00:01:47;13.38;;;6.97;;
28304;SDS011;15569;42.652;23.040;2022-11-13T00:04:13;20.40;;;9.25;;
28304;SDS011;15569;42.652;23.040;2022-11-13T00:06:38;16.10;;;8.38;;
28304;SDS011;15569;42.652;23.040;2022-11-13T00:09:04;18.08;;;9.38;;
28304;SDS011;15569;42.652;23.040;2022-11-13T00:11:29;17.30;;;10.10;;
28304;SDS011;15569;42.652;23.040;2022-11-13T00:13:55;10.63;;;5.90;;
28304;SDS011;15569;42.652;23.040;2022-11-13T00:16:20;17.45;;;8.25;;
28304;SDS011;15569;42.652;23.040;2022-11-13T00:21:12;13.65;;;6.95;;
28304;SDS011;15569;42.652;23.040;2022-11-13T00:23:40;11.95;;;6.40;;
28304;SDS011;15569;42.652;23.040;2022-11-13T00:26:10;11.20;;;6.53;;
28304;SDS011;15569;42.652;23.040;2022-11-13T00:28:38;11.38;;;5.38;;
28304;SDS011;15569;42.652;23.040;2022-11-13T00:31:04;12.43;;;6.20;;
28304;SDS011;15569;42.652;23.040;2022-11-13T00:33:30;19.30;;;9.13;;
28304;SDS011;15569;42.652;23.040;2022-11-13T00:38:29;19.80;;;9.25;;
28304;SDS011;15569;42.652;23.040;2022-11-13T00:40:54;22.40;;;10.27;;
28304;SDS011;15569;42.652;23.040;2022-11-13T00:43:20;20.38;;;9.82;;
28304;SDS011;15569;42.652;23.040;2022-11-13T00:45:45;18.08;;;10.38;;
28304;SDS011;15569;42.652;23.040;2022-11-13T00:48:11;21.92;;;12.27;;
28304;SDS011;15569;42.652;23.040;2022-11-13T00:50:36;24.10;;;11.73;;
28304;SDS011;15569;42.652;23.040;2022-11-13T00:53:02;18.88;;;10.18;;
28304;SDS011;15569;42.652;23.040;2022-11-13T00:55:27;18.88;;;10.60;;
28304;SDS011;15569;42.652;23.040;2022-11-13T00:57:52;18.23;;;8.75;;
28304;SDS011;15569;42.652;23.040;2022-11-13T01:00:18;18.85;;;10.43;;
28304;SDS011;15569;42.652;23.040;2022-11-13T01:02:43;21.20;;;9.88;;
28304;SDS011;15569;42.652;23.040;2022-11-13T01:05:08;19.30;;;9.63;;
28304;SDS011;15569;42.652;23.040;2022-11-13T01:07:35;19.70;;;9.30;;
28304;SDS011;15569;42.652;23.040;2022-11-13T01:10:02;23.25;;;12.32;;
28304;SDS011;15569;42.652;23.040;2022-11-13T01:12:28;22.52;;;9.07;;
28304;SDS011;15569;42.652;23.040;2022-11-13T01:14:54;20.83;;;8.55;;
28304;SDS011;15569;42.652;23.040;2022-11-13T01:17:19;19.23;;;8.30;;
28304;SDS011;15569;42.652;23.040;2022-11-13T01:19:45;17.27;;;8.60;;
28304;SDS011;15569;42.652;23.040;2022-11-13T01:22:10;16.35;;;7.55;;
28304;SDS011;15569;42.652;23.040;2022-11-13T01:24:35;19.17;;;8.00;;
28304;SDS011;15569;42.652;23.040;2022-11-13T01:27:01;21.08;;;9.25;;
28304;SDS011;15569;42.652;23.040;2022-11-13T01:29:26;12.30;;;6.90;;
28304;SDS011;15569;42.652;23.040;2022-11-13T01:31:52;18.20;;;8.88;;
28304;SDS011;15569;42.652;23.040;2022-11-13T01:34:17;16.92;;;9.13;;
28304;SDS011;15569;42.652;23.040;2022-11-13T01:36:42;19.70;;;10.30;;
28304;SDS011;15569;42.652;23.040;2022-11-13T01:39:09;19.50;;;9.25;;
28304;SDS011;15569;42.652;23.040;2022-11-13T01:41:35;20.52;;;9.27;;
28304;SDS011;15569;42.652;23.040;2022-11-13T01:44:01;47.33;;;15.75;;
28304;SDS011;15569;42.652;23.040;2022-11-13T01:46:30;32.08;;;11.60;;
28304;SDS011;15569;42.652;23.040;2022-11-13T01:51:35;17.85;;;8.63;;
28304;SDS011;15569;42.652;23.040;2022-11-13T01:54:04;18.10;;;8.00;;
28304;SDS011;15569;42.652;23.040;2022-11-13T01:56:35;16.83;;;8.18;;
28304;SDS011;15569;42.652;23.040;2022-11-13T01:59:14;17.65;;;8.88;;
28304;SDS011;15569;42.652;23.040;2022-11-13T02:01:43;16.42;;;8.07;;
28304;SDS011;15569;42.652;23.040;2022-11-13T02:04:08;16.23;;;7.88;;
28304;SDS011;15569;42.652;23.040;2022-11-13T02:06:55;17.40;;;8.48;;
28304;SDS011;15569;42.652;23.040;2022-11-13T02:09:23;25.38;;;9.70;;
28304;SDS011;15569;42.652;23.040;2022-11-13T02:11:51;21.48;;;8.40;;
28304;SDS011;15569;42.652;23.040;2022-11-13T02:14:17;34.97;;;10.25;;
28304;SDS011;15569;42.652;23.040;2022-11-13T02:16:44;44.67;;;16.15;;
28304;SDS011;15569;42.652;23.040;2022-11-13T02:19:25;29.17;;;12.20;;
28304;SDS011;15569;42.652;23.040;2022-11-13T02:24:40;41.05;;;13.82;;
28304;SDS011;15569;42.652;23.040;2022-11-13T02:27:13;26.90;;;12.25;;
28304;SDS011;15569;42.652;23.040;2022-11-13T02:29:51;28.15;;;11.38;;
28304;SDS011;15569;42.652;23.040;2022-11-13T02:32:17;20.30;;;9.35;;
28304;SDS011;15569;42.652;23.040;2022-11-13T02:34:42;19.35;;;9.38;;
28304;SDS011;15569;42.652;23.040;2022-11-13T02:37:08;22.42;;;10.23;;
28304;SDS011;15569;42.652;23.040;2022-11-13T02:39:33;22.55;;;9.35;;
28304;SDS011;15569;42.652;23.040;2022-11-13T02:41:59;20.17;;;9.10;;
28304;SDS011;15569;42.652;23.040;2022-11-13T02:44:24;24.00;;;10.18;;
28304;SDS011;15569;42.652;23.040;2022-11-13T02:46:49;25.30;;;10.75;;
28304;SDS011;15569;42.652;23.040;2022-11-13T02:49:15;31.23;;;11.68;;
28304;SDS011;15569;42.652;23.040;2022-11-13T02:51:40;21.90;;;9.05;;
28304;SDS011;15569;42.652;23.040;2022-11-13T02:54:05;27.65;;;11.27;;
28304;SDS011;15569;42.652;23.040;2022-11-13T02:56:31;19.38;;;9.43;;
28304;SDS011;15569;42.652;23.040;2022-11-13T02:58:56;23.75;;;10.73;;
28304;SDS011;15569;42.652;23.040;2022-11-13T03:01:22;26.67;;;9.75;;
28304;SDS011;15569;42.652;23.040;2022-11-13T03:03:47;24.73;;;10.65;;
28304;SDS011;15569;42.652;23.040;2022-11-13T03:06:12;19.13;;;10.70;;
28304;SDS011;15569;42.652;23.040;2022-11-13T03:08:38;24.52;;;9.60;;
28304;SDS011;15569;42.652;23.040;2022-11-13T03:11:09;27.35;;;10.90;;
28304;SDS011;15569;42.652;23.040;2022-11-13T03:13:35;31.20;;;12.77;;
28304;SDS011;15569;42.652;23.040;2022-11-13T03:16:12;25.17;;;10.18;;
28304;SDS011;15569;42.652;23.040;2022-11-13T03:18:39;22.70;;;10.82;;
28304;SDS011;15569;42.652;23.040;2022-11-13T03:21:08;41.58;;;16.77;;
28304;SDS011;15569;42.652;23.040;2022-11-13T03:26:01;34.55;;;18.98;;
28304;SDS011;15569;42.652;23.040;2022-11-13T03:28:31;28.30;;;16.30;;
28304;SDS011;15569;42.652;23.040;2022-11-13T03:30:57;35.33;;;16.33;;
28304;SDS011;15569;42.652;23.040;2022-11-13T03:33:22;26.48;;;13.50;;
28304;SDS011;15569;42.652;23.040;2022-11-13T03:35:48;32.60;;;12.55;;
28304;SDS011;15569;42.652;23.040;2022-11-13T03:38:14;30.45;;;14.10;;
28304;SDS011;15569;42.652;23.040;2022-11-13T03:40:39;27.17;;;13.10;;
28304;SDS011;15569;42.652;23.040;2022-11-13T03:43:06;33.22;;;13.10;;
28304;SDS011;15569;42.652;23.040;2022-11-13T03:45:31;46.88;;;11.02;;
28304;SDS011;15569;42.652;23.040;2022-11-13T03:47:57;34.72;;;11.77;;
28304;SDS011;15569;42.652;23.040;2022-11-13T03:50:23;32.60;;;12.45;;
28304;SDS011;15569;42.652;23.040;2022-11-13T03:52:48;34.50;;;11.68;;
28304;SDS011;15569;42.652;23.040;2022-11-13T03:55:14;43.25;;;12.68;;
28304;SDS011;15569;42.652;23.040;2022-11-13T03:57:39;31.15;;;12.98;;
28304;SDS011;15569;42.652;23.040;2022-11-13T04:00:05;43.55;;;16.92;;
28304;SDS011;15569;42.652;23.040;2022-11-13T04:02:31;44.25;;;14.85;;
28304;SDS011;15569;42.652;23.040;2022-11-13T04:04:56;42.22;;;15.88;;
28304;SDS011;15569;42.652;23.040;2022-11-13T04:07:21;40.75;;;16.85;;
28304;SDS011;15569;42.652;23.040;2022-11-13T04:09:47;40.15;;;12.15;;
28304;SDS011;15569;42.652;23.040;2022-11-13T04:12:12;35.50;;;12.63;;
28304;SDS011;15569;42.652;23.040;2022-11-13T04:14:37;33.70;;;11.90;;
28304;SDS011;15569;42.652;23.040;2022-11-13T04:17:03;31.13;;;12.75;;
28304;SDS011;15569;42.652;23.040;2022-11-13T04:19:28;36.90;;;11.27;;
28304;SDS011;15569;42.652;23.040;2022-11-13T04:21:54;31.08;;;11.57;;
28304;SDS011;15569;42.652;23.040;2022-11-13T04:24:19;30.80;;;12.23;;
28304;SDS011;15569;42.652;23.040;2022-11-13T04:26:44;34.75;;;11.93;;
28304;SDS011;15569;42.652;23.040;2022-11-13T04:29:10;31.50;;;12.55;;
28304;SDS011;15569;42.652;23.040;2022-11-13T04:31:35;35.55;;;14.77;;
28304;SDS011;15569;42.652;23.040;2022-11-13T04:34:00;30.08;;;12.50;;
28304;SDS011;15569;42.652;23.040;2022-11-13T04:36:26;31.00;;;12.98;;
28304;SDS011;15569;42.652;23.040;2022-11-13T04:38:51;31.98;;;12.93;;
28304;SDS011;15569;42.652;23.040;2022-11-13T04:41:16;37.60;;;14.25;;
28304;SDS011;15569;42.652;23.040;2022-11-13T04:44:00;30.25;;;12.88;;
28304;SDS011;15569;42.652;23.040;2022-11-13T04:46:26;34.38;;;12.55;;
28304;SDS011;15569;42.652;23.040;2022-11-13T04:48:51;31.20;;;13.32;;
28304;SDS011;15569;42.652;23.040;2022-11-13T04:51:16;36.35;;;12.73;;
28304;SDS011;15569;42.652;23.040;2022-11-13T04:53:42;34.15;;;13.15;;
28304;SDS011;15569;42.652;23.040;2022-11-13T04:56:07;39.85;;;16.05;;
28304;SDS011;15569;42.652;23.040;2022-11-13T04:58:33;34.05;;;13.90;;
28304;SDS011;15569;42.652;23.040;2022-11-13T05:03:23;29.25;;;14.88;;
28304;SDS011;15569;42.652;23.040;2022-11-13T05:05:48;36.53;;;15.15;;
28304;SDS011;15569;42.652;23.040;2022-11-13T05:08:14;39.72;;;14.40;;
28304;SDS011;15569;42.652;23.040;2022-11-13T05:10:39;42.65;;;13.95;;
28304;SDS011;15569;42.652;23.040;2022-11-13T05:13:05;36.25;;;13.30;;
28304;SDS011;15569;42.652;23.040;2022-11-13T05:15:30;28.83;;;14.13;;
28304;SDS011;15569;42.652;23.040;2022-11-13T05:17:56;40.30;;;16.30;;
28304;SDS011;15569;42.652;23.040;2022-11-13T05:20:21;40.08;;;15.45;;
28304;SDS011;15569;42.652;23.040;2022-11-13T05:22:47;60.35;;;26.85;;
28304;SDS011;15569;42.652;23.040;2022-11-13T05:25:12;74.03;;;30.20;;
28304;SDS011;15569;42.652;23.040;2022-11-13T05:27:38;52.05;;;22.27;;
28304;SDS011;15569;42.652;23.040;2022-11-13T05:30:03;51.90;;;26.40;;
28304;SDS011;15569;42.652;23.040;2022-11-13T05:32:30;42.67;;;19.00;;
28304;SDS011;15569;42.652;23.040;2022-11-13T05:34:56;60.50;;;27.88;;
28304;SDS011;15569;42.652;23.040;2022-11-13T05:37:21;71.97;;;27.92;;
28304;SDS011;15569;42.652;23.040;2022-11-13T05:39:47;67.75;;;26.38;;
28304;SDS011;15569;42.652;23.040;2022-11-13T05:42:12;68.78;;;28.90;;
28304;SDS011;15569;42.652;23.040;2022-11-13T05:44:38;73.47;;;29.90;;
28304;SDS011;15569;42.652;23.040;2022-11-13T05:47:03;78.88;;;29.83;;
28304;SDS011;15569;42.652;23.040;2022-11-13T05:49:28;94.03;;;34.35;;
28304;SDS011;15569;42.652;23.040;2022-11-13T05:51:54;71.75;;;24.75;;
28304;SDS011;15569;42.652;23.040;2022-11-13T05:54:19;63.97;;;23.77;;
28304;SDS011;15569;42.652;23.040;2022-11-13T05:56:45;72.40;;;24.13;;
28304;SDS011;15569;42.652;23.040;2022-11-13T05:59:10;78.80;;;26.35;;
28304;SDS011;15569;42.652;23.040;2022-11-13T06:01:36;75.65;;;25.85;;
28304;SDS011;15569;42.652;23.040;2022-11-13T06:04:04;72.60;;;23.58;;
28304;SDS011;15569;42.652;23.040;2022-11-13T06:06:30;63.53;;;18.10;;
28304;SDS011;15569;42.652;23.040;2022-11-13T06:08:57;61.50;;;20.58;;
28304;SDS011;15569;42.652;23.040;2022-11-13T06:11:24;73.93;;;23.92;;
28304;SDS011;15569;42.652;23.040;2022-11-13T06:13:51;64.75;;;21.48;;
28304;SDS011;15569;42.652;23.040;2022-11-13T06:16:21;60.53;;;18.42;;
28304;SDS011;15569;42.652;23.040;2022-11-13T06:18:49;57.08;;;18.60;;
28304;SDS011;15569;42.652;23.040;2022-11-13T06:21:19;73.78;;;20.70;;
28304;SDS011;15569;42.652;23.040;2022-11-13T06:23:46;75.65;;;22.90;;
28304;SDS011;15569;42.652;23.040;2022-11-13T06:26:13;62.75;;;19.77;;
28304;SDS011;15569;42.652;23.040;2022-11-13T06:28:41;56.37;;;18.83;;
28304;SDS011;15569;42.652;23.040;2022-11-13T06:31:17;48.13;;;18.23;;
28304;SDS011;15569;42.652;23.040;2022-11-13T06:36:14;48.42;;;15.68;;
28304;SDS011;15569;42.652;23.040;2022-11-13T06:38:40;48.78;;;15.77;;
28304;SDS011;15569;42.652;23.040;2022-11-13T06:41:07;38.08;;;14.40;;
28304;SDS011;15569;42.652;23.040;2022-11-13T06:43:34;44.45;;;16.50;;
28304;SDS011;15569;42.652;23.040;2022-11-13T06:46:07;49.83;;;18.80;;
28304;SDS011;15569;42.652;23.040;2022-11-13T06:48:37;38.30;;;15.30;;
28304;SDS011;15569;42.652;23.040;2022-11-13T06:51:03;33.90;;;12.63;;
28304;SDS011;15569;42.652;23.040;2022-11-13T06:53:30;29.73;;;12.02;;
28304;SDS011;15569;42.652;23.040;2022-11-13T06:55:56;38.67;;;13.82;;
28304;SDS011;15569;42.652;23.040;2022-11-13T06:58:22;48.35;;;16.42;;
28304;SDS011;15569;42.652;23.040;2022-11-13T07:00:48;54.88;;;18.15;;
28304;SDS011;15569;42.652;23.040;2022-11-13T07:03:14;52.30;;;18.77;;
28304;SDS011;15569;42.652;23.040;2022-11-13T07:05:47;57.70;;;18.35;;
28304;SDS011;15569;42.652;23.040;2022-11-13T07:08:13;58.70;;;15.98;;
28304;SDS011;15569;42.652;23.040;2022-11-13T07:10:39;63.50;;;19.00;;
28304;SDS011;15569;42.652;23.040;2022-11-13T07:13:05;68.72;;;19.70;;
28304;SDS011;15569;42.652;23.040;2022-11-13T07:15:34;78.88;;;22.42;;
28304;SDS011;15569;42.652;23.040;2022-11-13T07:18:03;73.03;;;23.17;;
28304;SDS011;15569;42.652;23.040;2022-11-13T07:20:30;51.70;;;17.40;;
28304;SDS011;15569;42.652;23.040;2022-11-13T07:22:56;64.82;;;16.45;;
28304;SDS011;15569;42.652;23.040;2022-11-13T07:25:23;62.30;;;18.42;;
28304;SDS011;15569;42.652;23.040;2022-11-13T07:27:49;61.67;;;18.45;;
28304;SDS011;15569;42.652;23.040;2022-11-13T07:30:15;60.33;;;17.35;;
28304;SDS011;15569;42.652;23.040;2022-11-13T07:32:41;62.17;;;17.95;;
28304;SDS011;15569;42.652;23.040;2022-11-13T07:35:06;48.35;;;18.10;;
28304;SDS011;15569;42.652;23.040;2022-11-13T07:37:32;51.28;;;16.70;;
28304;SDS011;15569;42.652;23.040;2022-11-13T07:39:57;55.55;;;16.85;;
28304;SDS011;15569;42.652;23.040;2022-11-13T07:42:23;60.25;;;16.45;;
28304;SDS011;15569;42.652;23.040;2022-11-13T07:44:48;61.88;;;19.30;;
28304;SDS011;15569;42.652;23.040;2022-11-13T07:47:13;75.20;;;17.55;;
28304;SDS011;15569;42.652;23.040;2022-11-13T07:49:39;47.90;;;17.83;;
28304;SDS011;15569;42.652;23.040;2022-11-13T07:52:04;49.67;;;16.20;;
28304;SDS011;15569;42.652;23.040;2022-11-13T07:54:30;44.33;;;16.45;;
28304;SDS011;15569;42.652;23.040;2022-11-13T07:56:55;45.03;;;18.52;;
28304;SDS011;15569;42.652;23.040;2022-11-13T07:59:21;44.00;;;16.58;;
28304;SDS011;15569;42.652;23.040;2022-11-13T08:01:46;66.25;;;21.95;;
28304;SDS011;15569;42.652;23.040;2022-11-13T08:04:11;43.75;;;18.42;;
28304;SDS011;15569;42.652;23.040;2022-11-13T08:06:37;30.73;;;12.27;;
28304;SDS011;15569;42.652;23.040;2022-11-13T08:09:03;43.08;;;12.77;;
28304;SDS011;15569;42.652;23.040;2022-11-13T08:11:28;46.70;;;17.33;;
28304;SDS011;15569;42.652;23.040;2022-11-13T08:13:54;59.95;;;21.38;;
28304;SDS011;15569;42.652;23.040;2022-11-13T08:16:19;325.25;;;98.03;;
28304;SDS011;15569;42.652;23.040;2022-11-13T08:18:47;30.60;;;14.73;;
28304;SDS011;15569;42.652;23.040;2022-11-13T08:21:13;26.95;;;11.00;;
28304;SDS011;15569;42.652;23.040;2022-11-13T08:23:39;20.92;;;9.55;;
28304;SDS011;15569;42.652;23.040;2022-11-13T08:26:05;22.23;;;9.73;;
28304;SDS011;15569;42.652;23.040;2022-11-13T08:28:31;26.17;;;9.73;;
28304;SDS011;15569;42.652;23.040;2022-11-13T08:30:58;22.15;;;8.73;;
28304;SDS011;15569;42.652;23.040;2022-11-13T08:33:23;18.73;;;9.68;;
28304;SDS011;15569;42.652;23.040;2022-11-13T08:35:52;19.00;;;8.60;;
28304;SDS011;15569;42.652;23.040;2022-11-13T08:38:21;24.85;;;8.73;;
28304;SDS011;15569;42.652;23.040;2022-11-13T08:40:47;27.10;;;9.93;;
28304;SDS011;15569;42.652;23.040;2022-11-13T08:43:12;23.92;;;10.75;;
28304;SDS011;15569;42.652;23.040;2022-11-13T08:45:38;28.85;;;10.25;;
28304;SDS011;15569;42.652;23.040;2022-11-13T08:48:03;28.10;;;11.65;;
28304;SDS011;15569;42.652;23.040;2022-11-13T08:50:30;28.63;;;10.65;;
28304;SDS011;15569;42.652;23.040;2022-11-13T08:52:56;21.42;;;10.13;;
28304;SDS011;15569;42.652;23.040;2022-11-13T08:55:23;28.05;;;11.98;;
28304;SDS011;15569;42.652;23.040;2022-11-13T08:57:50;25.15;;;10.15;;
28304;SDS011;15569;42.652;23.040;2022-11-13T09:00:15;29.17;;;11.38;;
28304;SDS011;15569;42.652;23.040;2022-11-13T09:02:41;22.80;;;10.48;;
28304;SDS011;15569;42.652;23.040;2022-11-13T09:05:07;20.50;;;9.30;;
28304;SDS011;15569;42.652;23.040;2022-11-13T09:07:33;20.63;;;8.15;;
28304;SDS011;15569;42.652;23.040;2022-11-13T09:09:58;15.90;;;8.02;;
28304;SDS011;15569;42.652;23.040;2022-11-13T09:12:24;12.13;;;7.22;;
28304;SDS011;15569;42.652;23.040;2022-11-13T09:14:49;15.82;;;7.68;;
28304;SDS011;15569;42.652;23.040;2022-11-13T09:17:15;16.90;;;9.63;;
28304;SDS011;15569;42.652;23.040;2022-11-13T09:19:41;14.43;;;8.15;;
28304;SDS011;15569;42.652;23.040;2022-11-13T09:22:06;12.82;;;6.65;;
28304;SDS011;15569;42.652;23.040;2022-11-13T09:24:32;13.70;;;6.90;;
28304;SDS011;15569;42.652;23.040;2022-11-13T09:26:57;13.50;;;8.00;;
28304;SDS011;15569;42.652;23.040;2022-11-13T09:29:22;13.80;;;7.85;;
28304;SDS011;15569;42.652;23.040;2022-11-13T09:31:49;11.75;;;6.72;;
28304;SDS011;15569;42.652;23.040;2022-11-13T09:34:15;13.45;;;7.00;;
28304;SDS011;15569;42.652;23.040;2022-11-13T09:36:41;31.13;;;9.23;;
28304;SDS011;15569;42.652;23.040;2022-11-13T09:39:06;15.68;;;9.02;;
28304;SDS011;15569;42.652;23.040;2022-11-13T09:41:33;15.95;;;8.20;;
28304;SDS011;15569;42.652;23.040;2022-11-13T09:44:04;10.55;;;7.25;;
28304;SDS011;15569;42.652;23.040;2022-11-13T09:46:40;12.20;;;7.15;;
28304;SDS011;15569;42.652;23.040;2022-11-13T09:49:16;13.98;;;7.78;;
28304;SDS011;15569;42.652;23.040;2022-11-13T09:51:50;12.00;;;6.97;;
28304;SDS011;15569;42.652;23.040;2022-11-13T09:54:18;12.73;;;7.28;;
28304;SDS011;15569;42.652;23.040;2022-11-13T09:59:25;13.50;;;7.32;;
28304;SDS011;15569;42.652;23.040;2022-11-13T10:12:54;13.55;;;8.35;;
28304;SDS011;15569;42.652;23.040;2022-11-13T10:15:22;14.85;;;8.10;;
28304;SDS011;15569;42.652;23.040;2022-11-13T10:17:57;14.00;;;7.85;;
28304;SDS011;15569;42.652;23.040;2022-11-13T10:20:28;16.17;;;8.25;;
28304;SDS011;15569;42.652;23.040;2022-11-13T10:23:14;13.68;;;7.88;;
28304;SDS011;15569;42.652;23.040;2022-11-13T10:25:43;12.55;;;7.60;;
28304;SDS011;15569;42.652;23.040;2022-11-13T10:28:14;43.15;;;9.10;;
28304;SDS011;15569;42.652;23.040;2022-11-13T10:30:43;40.25;;;8.85;;
28304;SDS011;15569;42.652;23.040;2022-11-13T10:33:10;11.75;;;7.80;;
28304;SDS011;15569;42.652;23.040;2022-11-13T10:35:42;13.07;;;8.13;;
28304;SDS011;15569;42.652;23.040;2022-11-13T10:38:17;16.65;;;7.13;;
28304;SDS011;15569;42.652;23.040;2022-11-13T10:41:13;13.82;;;7.75;;
28304;SDS011;15569;42.652;23.040;2022-11-13T10:46:27;43.08;;;18.92;;
28304;SDS011;15569;42.652;23.040;2022-11-13T10:48:54;12.95;;;7.47;;
28304;SDS011;15569;42.652;23.040;2022-11-13T10:51:27;10.57;;;6.57;;
28304;SDS011;15569;42.652;23.040;2022-11-13T10:53:55;12.13;;;6.88;;
28304;SDS011;15569;42.652;23.040;2022-11-13T10:59:00;12.18;;;7.47;;
28304;SDS011;15569;42.652;23.040;2022-11-13T11:01:34;11.93;;;7.00;;
28304;SDS011;15569;42.652;23.040;2022-11-13T11:04:09;15.38;;;7.70;;
28304;SDS011;15569;42.652;23.040;2022-11-13T11:06:46;11.32;;;6.65;;
28304;SDS011;15569;42.652;23.040;2022-11-13T11:09:27;12.98;;;7.55;;
28304;SDS011;15569;42.652;23.040;2022-11-13T11:11:57;13.82;;;7.13;;
28304;SDS011;15569;42.652;23.040;2022-11-13T11:17:27;25.20;;;12.32;;
28304;SDS011;15569;42.652;23.040;2022-11-13T11:22:35;47.75;;;21.92;;
28304;SDS011;15569;42.652;23.040;2022-11-13T11:25:14;38.45;;;18.00;;
28304;SDS011;15569;42.652;23.040;2022-11-13T11:28:01;19.40;;;9.73;;
28304;SDS011;15569;42.652;23.040;2022-11-13T11:30:38;10.95;;;7.72;;
28304;SDS011;15569;42.652;23.040;2022-11-13T11:36:32;14.63;;;8.43;;
28304;SDS011;15569;42.652;23.040;2022-11-13T11:39:26;20.75;;;12.15;;
28304;SDS011;15569;42.652;23.040;2022-11-13T11:42:27;55.92;;;22.65;;
28304;SDS011;15569;42.652;23.040;2022-11-13T11:47:41;33.55;;;16.30;;
28304;SDS011;15569;42.652;23.040;2022-11-13T11:50:11;26.63;;;12.98;;
28304;SDS011;15569;42.652;23.040;2022-11-13T11:53:12;13.98;;;9.15;;
28304;SDS011;15569;42.652;23.040;2022-11-13T11:55:45;25.70;;;13.50;;
28304;SDS011;15569;42.652;23.040;2022-11-13T12:06:59;27.27;;;12.95;;
28304;SDS011;15569;42.652;23.040;2022-11-13T12:09:29;23.25;;;12.63;;
28304;SDS011;15569;42.652;23.040;2022-11-13T12:20:14;23.13;;;14.18;;
28304;SDS011;15569;42.652;23.040;2022-11-13T12:25:36;17.63;;;11.95;;
28304;SDS011;15569;42.652;23.040;2022-11-13T12:30:57;19.52;;;10.77;;
28304;SDS011;15569;42.652;23.040;2022-11-13T12:33:46;15.95;;;10.90;;
28304;SDS011;15569;42.652;23.040;2022-11-13T12:36:22;14.73;;;10.82;;
28304;SDS011;15569;42.652;23.040;2022-11-13T12:38:54;20.95;;;13.20;;
28304;SDS011;15569;42.652;23.040;2022-11-13T12:41:37;21.42;;;13.63;;
28304;SDS011;15569;42.652;23.040;2022-11-13T12:44:16;17.90;;;11.35;;
28304;SDS011;15569;42.652;23.040;2022-11-13T12:46:47;16.98;;;12.07;;
28304;SDS011;15569;42.652;23.040;2022-11-13T12:51:56;24.48;;;13.02;;
28304;SDS011;15569;42.652;23.040;2022-11-13T13:20:38;31.77;;;16.75;;
28304;SDS011;15569;42.652;23.040;2022-11-13T13:23:08;20.75;;;13.93;;
28304;SDS011;15569;42.652;23.040;2022-11-13T13:26:00;22.23;;;15.90;;
28304;SDS011;15569;42.652;23.040;2022-11-13T13:28:26;24.50;;;15.95;;
28304;SDS011;15569;42.652;23.040;2022-11-13T13:39:07;20.95;;;13.30;;
28304;SDS011;15569;42.652;23.040;2022-11-13T13:47:37;17.10;;;11.88;;
28304;SDS011;15569;42.652;23.040;2022-11-13T13:50:06;23.88;;;14.63;;
28304;SDS011;15569;42.652;23.040;2022-11-13T13:52:37;19.95;;;13.32;;
28304;SDS011;15569;42.652;23.040;2022-11-13T13:55:03;20.58;;;12.55;;
28304;SDS011;15569;42.652;23.040;2022-11-13T13:57:33;21.05;;;13.98;;
28304;SDS011;15569;42.652;23.040;2022-11-13T14:00:08;18.73;;;13.10;;
28304;SDS011;15569;42.652;23.040;2022-11-13T14:02:48;18.48;;;12.45;;
28304;SDS011;15569;42.652;23.040;2022-11-13T14:05:27;22.73;;;13.43;;
28304;SDS011;15569;42.652;23.040;2022-11-13T14:07:57;55.28;;;29.58;;
28304;SDS011;15569;42.652;23.040;2022-11-13T14:10:24;31.38;;;17.50;;
28304;SDS011;15569;42.652;23.040;2022-11-13T14:12:52;29.88;;;16.88;;
28304;SDS011;15569;42.652;23.040;2022-11-13T14:17:51;27.83;;;15.13;;
28304;SDS011;15569;42.652;23.040;2022-11-13T14:20:17;23.05;;;14.70;;
28304;SDS011;15569;42.652;23.040;2022-11-13T14:22:43;26.17;;;15.02;;
28304;SDS011;15569;42.652;23.040;2022-11-13T14:25:21;25.20;;;15.77;;
28304;SDS011;15569;42.652;23.040;2022-11-13T14:27:47;22.13;;;13.75;;
28304;SDS011;15569;42.652;23.040;2022-11-13T14:30:23;61.15;;;26.92;;
28304;SDS011;15569;42.652;23.040;2022-11-13T14:32:51;39.20;;;19.13;;
28304;SDS011;15569;42.652;23.040;2022-11-13T14:35:18;49.38;;;23.25;;
28304;SDS011;15569;42.652;23.040;2022-11-13T14:37:46;54.50;;;23.77;;
28304;SDS011;15569;42.652;23.040;2022-11-13T14:40:26;32.13;;;17.20;;
28304;SDS011;15569;42.652;23.040;2022-11-13T14:42:57;57.08;;;20.90;;
28304;SDS011;15569;42.652;23.040;2022-11-13T14:45:29;58.10;;;22.58;;
28304;SDS011;15569;42.652;23.040;2022-11-13T14:50:47;41.72;;;21.88;;
28304;SDS011;15569;42.652;23.040;2022-11-13T14:53:36;50.35;;;21.30;;
28304;SDS011;15569;42.652;23.040;2022-11-13T14:56:04;70.38;;;27.58;;
28304;SDS011;15569;42.652;23.040;2022-11-13T14:58:38;98.95;;;37.25;;
28304;SDS011;15569;42.652;23.040;2022-11-13T15:03:44;70.95;;;27.23;;
28304;SDS011;15569;42.652;23.040;2022-11-13T15:08:47;118.05;;;42.30;;
28304;SDS011;15569;42.652;23.040;2022-11-13T15:11:14;94.43;;;37.15;;
28304;SDS011;15569;42.652;23.040;2022-11-13T15:13:41;60.65;;;28.42;;
28304;SDS011;15569;42.652;23.040;2022-11-13T15:16:14;96.22;;;40.88;;
28304;SDS011;15569;42.652;23.040;2022-11-13T15:18:57;101.32;;;41.90;;
28304;SDS011;15569;42.652;23.040;2022-11-13T15:21:25;136.85;;;48.53;;
28304;SDS011;15569;42.652;23.040;2022-11-13T15:23:51;131.90;;;50.92;;
28304;SDS011;15569;42.652;23.040;2022-11-13T15:26:16;90.03;;;38.90;;
28304;SDS011;15569;42.652;23.040;2022-11-13T15:28:41;57.22;;;24.13;;
28304;SDS011;15569;42.652;23.040;2022-11-13T15:33:53;75.65;;;27.92;;
28304;SDS011;15569;42.652;23.040;2022-11-13T15:36:18;44.72;;;20.02;;
28304;SDS011;15569;42.652;23.040;2022-11-13T15:38:44;49.08;;;22.08;;
28304;SDS011;15569;42.652;23.040;2022-11-13T15:41:13;49.15;;;22.63;;
28304;SDS011;15569;42.652;23.040;2022-11-13T15:43:42;103.90;;;39.97;;
28304;SDS011;15569;42.652;23.040;2022-11-13T15:46:15;147.10;;;55.60;;
28304;SDS011;15569;42.652;23.040;2022-11-13T15:48:45;135.15;;;50.30;;
28304;SDS011;15569;42.652;23.040;2022-11-13T15:51:18;63.03;;;28.40;;
28304;SDS011;15569;42.652;23.040;2022-11-13T15:53:47;86.03;;;34.42;;
28304;SDS011;15569;42.652;23.040;2022-11-13T15:56:15;77.88;;;30.73;;
28304;SDS011;15569;42.652;23.040;2022-11-13T15:58:42;58.03;;;23.75;;
28304;SDS011;15569;42.652;23.040;2022-11-13T16:01:07;186.75;;;70.10;;
28304;SDS011;15569;42.652;23.040;2022-11-13T16:03:38;69.88;;;30.38;;
28304;SDS011;15569;42.652;23.040;2022-11-13T16:06:06;67.15;;;25.42;;
28304;SDS011;15569;42.652;23.040;2022-11-13T16:08:37;67.00;;;25.42;;
28304;SDS011;15569;42.652;23.040;2022-11-13T16:11:02;65.40;;;27.15;;
28304;SDS011;15569;42.652;23.040;2022-11-13T16:13:28;84.40;;;36.38;;
28304;SDS011;15569;42.652;23.040;2022-11-13T16:15:54;98.78;;;39.38;;
28304;SDS011;15569;42.652;23.040;2022-11-13T16:18:23;99.38;;;44.53;;
28304;SDS011;15569;42.652;23.040;2022-11-13T16:20:52;105.30;;;39.13;;
28304;SDS011;15569;42.652;23.040;2022-11-13T16:23:18;91.93;;;29.80;;
28304;SDS011;15569;42.652;23.040;2022-11-13T16:25:46;83.45;;;35.35;;